Time;durP1;ratioP1;P1;durP2;ratioP2;P2;SDS_P1;SDS_P2;PMS_P1;PMS_P2;Temp;Humidity;BMP_temperature;BMP_pressure;BME280_temperature;BME280_humidity;BME280_pressure;Samples;Min_cycle;Max_cycle;Signal;HPM_P1;HPM_P2
2020/12/02 00:01:31;;;;;;;12.90;5.42;;;;;;;-3.67;99.10;101535.89;1764035;80;21084;-54
2020/12/02 00:04:06;;;;;;;12.90;6.08;;;;;;;-3.69;99.29;101543.58;1761954;80;21178;-54
2020/12/02 00:06:34;;;;;;;11.38;5.95;;;;;;;-3.71;99.52;101550.47;1769017;80;22262;-55
2020/12/02 00:09:14;;;;;;;11.18;5.75;;;;;;;-3.73;99.79;101554.78;1764426;80;21170;-55
2020/12/02 00:11:42;;;;;;;12.00;6.00;;;;;;;-3.74;99.93;101549.31;1767263;80;21117;-54
2020/12/02 00:14:22;;;;;;;13.50;5.95;;;;;;;-3.75;99.96;101556.58;1762281;80;21163;-54
2020/12/02 00:16:50;;;;;;;10.85;5.37;;;;;;;-3.78;100.00;101555.42;1763183;80;21165;-55
2020/12/02 00:19:19;;;;;;;12.75;5.90;;;;;;;-3.79;100.00;101573.29;1778297;80;22234;-54
2020/12/02 00:21:59;;;;;;;12.47;5.35;;;;;;;-3.81;100.00;101570.81;1762907;80;21013;-56
2020/12/02 00:24:27;;;;;;;11.80;6.10;;;;;;;-3.80;100.00;101566.55;1764840;80;21497;-57
2020/12/02 00:26:56;;;;;;;13.60;6.53;;;;;;;-3.80;100.00;101562.27;1760464;80;20977;-55
2020/12/02 00:29:24;;;;;;;12.50;6.58;;;;;;;-3.80;100.00;101574.19;1762915;80;21142;-56
2020/12/02 00:31:52;;;;;;;12.50;5.65;;;;;;;-3.80;100.00;101575.46;1763900;80;21259;-56
2020/12/02 00:34:20;;;;;;;12.95;5.70;;;;;;;-3.80;99.98;101581.38;1764575;80;21029;-56
2020/12/02 00:36:49;;;;;;;11.53;5.67;;;;;;;-3.83;99.85;101586.59;1770189;80;21104;-56
2020/12/02 00:39:17;;;;;;;17.15;6.67;;;;;;;-3.84;99.81;101573.47;1763969;80;20959;-57
2020/12/02 00:41:47;;;;;;;14.45;6.42;;;;;;;-3.85;99.94;101568.00;1767882;80;20938;-56
2020/12/02 00:44:16;;;;;;;13.80;5.58;;;;;;;-3.84;99.93;101575.20;1761858;80;21199;-57
2020/12/02 00:46:47;;;;;;;13.53;5.70;;;;;;;-3.84;99.69;101567.10;1763547;80;21147;-56
2020/12/02 00:49:16;;;;;;;12.15;5.92;;;;;;;-3.83;99.75;101575.13;1762578;80;21072;-56
2020/12/02 00:51:44;;;;;;;12.58;5.00;;;;;;;-3.82;99.82;101569.16;1744367;80;20898;-56
2020/12/02 00:54:12;;;;;;;12.75;5.20;;;;;;;-3.81;99.37;101574.64;1763985;80;20969;-56
2020/12/02 00:56:43;;;;;;;10.98;5.17;;;;;;;-3.80;99.10;101571.19;1767940;80;21310;-57
2020/12/02 00:59:25;;;;;;;11.97;5.15;;;;;;;-3.79;98.81;101570.33;1764112;80;21115;-56
2020/12/02 01:02:15;;;;;;;11.53;4.95;;;;;;;-3.79;98.46;101566.92;1773049;80;21018;-56
2020/12/02 01:04:44;;;;;;;9.98;5.05;;;;;;;-3.81;97.82;101573.81;1762839;80;21017;-55
2020/12/02 01:07:13;;;;;;;13.83;5.83;;;;;;;-3.84;97.69;101581.56;1764908;80;21674;-55
2020/12/02 01:09:41;;;;;;;11.15;5.47;;;;;;;-3.84;97.27;101586.66;1765271;80;21367;-56
2020/12/02 01:12:13;;;;;;;10.85;5.22;;;;;;;-3.84;97.09;101577.30;1760756;80;21084;-54
2020/12/02 01:14:42;;;;;;;8.85;4.72;;;;;;;-3.85;96.40;101593.48;1771909;80;21009;-55
2020/12/02 01:17:10;;;;;;;11.63;5.25;;;;;;;-3.87;96.23;101588.87;1765692;80;21156;-55
2020/12/02 01:19:39;;;;;;;12.58;6.08;;;;;;;-3.86;95.93;101582.05;1768765;80;21163;-56
2020/12/02 01:22:22;;;;;;;9.98;4.70;;;;;;;-3.87;95.92;101590.59;1766230;80;21215;-54
2020/12/02 01:25:15;;;;;;;10.40;5.47;;;;;;;-3.87;95.61;101599.05;1769009;80;21704;-55
2020/12/02 01:28:01;;;;;;;11.88;5.08;;;;;;;-3.85;95.48;101582.45;1763671;80;21046;-54
2020/12/02 01:30:29;;;;;;;11.50;4.90;;;;;;;-3.84;95.45;101571.38;1763532;80;21179;-56
2020/12/02 01:32:58;;;;;;;11.75;5.45;;;;;;;-3.84;95.06;101584.94;1767701;80;20967;-55
2020/12/02 01:35:27;;;;;;;8.93;4.92;;;;;;;-3.85;94.92;101573.09;1762762;80;21282;-56
2020/12/02 01:37:58;;;;;;;10.63;4.85;;;;;;;-3.83;94.94;101576.84;1766919;80;20958;-55
2020/12/02 01:40:28;;;;;;;;;;;;;;;-3.84;94.90;101576.47;1776022;80;21100;-55
2020/12/02 01:43:02;;;;;;;11.40;4.90;;;;;;;-3.84;95.03;101571.38;1762014;80;20222;-54
2020/12/02 01:45:43;;;;;;;11.68;5.35;;;;;;;-3.84;95.21;101585.39;1767120;80;21154;-55
2020/12/02 01:48:36;;;;;;;11.70;5.78;;;;;;;-3.83;94.96;101568.75;1766632;80;21176;-55
2020/12/02 01:51:47;;;;;;;11.05;6.10;;;;;;;-3.83;94.99;101567.48;1763260;80;20934;-55
2020/12/02 01:54:29;;;;;;;10.90;5.28;;;;;;;-3.83;95.14;101566.20;1714600;83;21160;-57
2020/12/02 01:57:26;;;;;;;13.32;5.95;;;;;;;-3.82;95.10;101554.33;1690822;82;21118;-55
2020/12/02 02:00:13;;;;;;;11.88;5.60;;;;;;;-3.80;95.28;101563.55;1765714;80;20946;-56
2020/12/02 02:03:12;;;;;;;10.53;4.53;;;;;;;-3.80;95.15;101563.55;1765106;80;21195;-56
2020/12/02 02:06:00;;;;;;;14.95;5.80;;;;;;;-3.78;95.03;101560.96;1763890;80;21178;-55
2020/12/02 02:08:31;;;;;;;12.18;5.90;;;;;;;-3.79;94.89;101557.59;1762654;80;21492;-55
2020/12/02 02:11:03;;;;;;;10.78;5.60;;;;;;;-3.82;94.75;101551.33;1774772;80;21181;-54
2020/12/02 02:14:04;;;;;;;11.97;6.17;;;;;;;-3.84;94.73;101553.54;1761290;80;21107;-54
2020/12/02 02:16:42;;;;;;;9.20;4.72;;;;;;;-3.86;94.73;101568.04;1763774;80;21266;-55
2020/12/02 02:19:21;;;;;;;13.93;5.80;;;;;;;-3.89;94.79;101550.35;1770370;80;21168;-56
2020/12/02 02:21:53;;;;;;;13.35;6.83;;;;;;;-3.92;95.11;101546.19;1765237;80;21084;-57
2020/12/02 02:24:21;;;;;;;12.88;5.10;;;;;;;-3.94;95.54;101551.77;1764388;80;21172;-57
2020/12/02 02:26:51;;;;;;;11.90;6.45;;;;;;;-3.91;95.99;101544.02;1769772;80;21183;-56
2020/12/02 02:29:32;;;;;;;10.28;5.25;;;;;;;-3.88;96.15;101548.18;1776181;80;21369;-56
2020/12/02 02:32:04;;;;;;;11.78;5.47;;;;;;;-3.87;96.35;101541.74;1760153;80;21128;-55
2020/12/02 02:34:33;;;;;;;12.00;5.67;;;;;;;-3.85;96.49;101555.27;1767861;80;20998;-55
2020/12/02 02:37:02;;;;;;;12.40;5.53;;;;;;;-3.87;96.69;101550.66;1772006;80;21072;-56
2020/12/02 02:39:30;;;;;;;13.85;6.17;;;;;;;-3.87;96.77;101546.84;1734103;80;21154;-56
2020/12/02 02:42:00;;;;;;;12.58;6.50;;;;;;;-3.86;96.96;101547.24;1772470;80;21206;-56
2020/12/02 02:44:28;;;;;;;15.75;6.58;;;;;;;-3.86;96.94;101556.16;1764161;80;21092;-56
2020/12/02 02:46:57;;;;;;;13.83;6.20;;;;;;;-3.88;97.04;101554.10;1766361;80;20997;-55
2020/12/02 02:49:25;;;;;;;12.85;5.90;;;;;;;-3.89;97.24;101550.35;1762007;80;21040;-55
2020/12/02 02:51:53;;;;;;;11.57;5.97;;;;;;;-3.88;97.55;101563.47;1763547;80;21179;-55
2020/12/02 02:54:22;;;;;;;11.63;6.00;;;;;;;-3.86;97.55;101547.24;1761576;80;21187;-55
2020/12/02 02:56:50;;;;;;;12.80;5.90;;;;;;;-3.88;97.61;101543.91;1764361;80;21593;-55
2020/12/02 02:59:18;;;;;;;15.60;5.90;;;;;;;-3.89;97.85;101545.25;1763955;80;21157;-55
2020/12/02 03:01:47;;;;;;;13.50;7.12;;;;;;;-3.91;97.86;101552.94;1773129;80;21147;-55
2020/12/02 03:04:17;;;;;;;15.03;6.67;;;;;;;-3.96;98.01;101559.48;1766025;80;21096;-55
2020/12/02 03:06:46;;;;;;;12.50;5.45;;;;;;;-3.98;98.18;101551.50;1762566;80;21452;-56
2020/12/02 03:09:14;;;;;;;13.00;6.53;;;;;;;-4.00;98.39;101549.48;1760681;80;20953;-54
2020/12/02 03:11:43;;;;;;;13.58;6.85;;;;;;;-4.03;98.74;101555.51;1768484;80;20982;-56
2020/12/02 03:14:11;;;;;;;14.95;6.78;;;;;;;-4.06;99.22;101554.34;1767400;80;21005;-56
2020/12/02 03:16:52;;;;;;;15.55;6.50;;;;;;;-4.10;99.89;101554.08;1762332;80;21612;-55
2020/12/02 03:19:30;;;;;;;13.98;6.75;;;;;;;-4.12;100.00;101557.59;1734252;80;22015;-56
2020/12/02 03:22:08;;;;;;;14.45;6.70;;;;;;;-4.15;100.00;101566.16;1771628;80;20907;-56
2020/12/02 03:24:36;;;;;;;12.60;6.30;;;;;;;-4.19;100.00;101560.34;1771050;80;20942;-55
2020/12/02 03:27:04;;;;;;;18.10;8.53;;;;;;;-4.19;100.00;101565.44;1760846;80;21020;-56
2020/12/02 03:29:33;;;;;;;16.00;7.75;;;;;;;-4.18;100.00;101568.36;1763621;80;21155;-57
2020/12/02 03:32:01;;;;;;;15.05;7.45;;;;;;;-4.18;100.00;101565.81;1777830;80;21201;-56
2020/12/02 03:34:29;;;;;;;14.65;7.90;;;;;;;-4.17;100.00;101558.59;1764451;80;21135;-56
2020/12/02 03:36:57;;;;;;;13.25;6.75;;;;;;;-4.14;100.00;101568.25;1766219;80;21283;-55
2020/12/02 03:39:25;;;;;;;13.60;6.55;;;;;;;-4.15;100.00;101575.06;1775110;80;21179;-55
2020/12/02 03:41:53;;;;;;;13.65;7.45;;;;;;;-4.17;100.00;101572.59;1766793;80;21162;-56
2020/12/02 03:44:21;;;;;;;12.75;6.83;;;;;;;-4.21;100.00;101571.02;1772448;80;21192;-57
2020/12/02 03:46:49;;;;;;;14.25;7.35;;;;;;;-4.21;100.00;101580.38;1766970;80;21135;-56
2020/12/02 03:49:17;;;;;;;14.63;7.37;;;;;;;-4.21;100.00;101571.46;1769593;80;21072;-56
2020/12/02 03:51:45;;;;;;;14.07;6.40;;;;;;;-4.18;100.00;101576.45;1772572;80;21076;-55
2020/12/02 03:54:14;;;;;;;14.63;7.00;;;;;;;-4.18;100.00;101576.45;1767553;80;21004;-55
2020/12/02 03:56:44;;;;;;;16.23;7.33;;;;;;;-4.20;100.00;101577.78;1763290;80;21028;-56
2020/12/02 04:06:13;;;;;;;15.03;6.73;;;;;;;-4.17;100.00;101579.37;1807050;79;22717;-55
2020/12/02 04:08:43;;;;;;;16.07;6.67;;;;;;;-4.22;100.00;101579.55;1782276;80;20951;-55
2020/12/02 04:11:11;;;;;;;15.60;6.92;;;;;;;-4.22;100.00;101574.90;1789248;80;21390;-55
2020/12/02 04:13:41;;;;;;;14.83;7.25;;;;;;;-4.21;100.00;101583.74;1787863;80;21057;-56
2020/12/02 04:16:09;;;;;;;14.38;6.83;;;;;;;-4.19;100.00;101576.89;1786041;80;21147;-55
2020/12/02 04:18:37;;;;;;;12.23;6.87;;;;;;;-4.18;100.00;101578.55;1783109;80;21026;-55
2020/12/02 04:21:05;;;;;;;13.50;6.72;;;;;;;-4.18;100.00;101585.36;1789967;80;21069;-56
2020/12/02 04:23:33;;;;;;;14.70;6.20;;;;;;;-4.17;100.00;101589.14;1789348;80;21271;-55
2020/12/02 04:26:02;;;;;;;15.83;7.45;;;;;;;-4.17;100.00;101594.64;1788167;80;20967;-55
2020/12/02 04:28:30;;;;;;;15.90;7.92;;;;;;;-4.20;100.00;101595.61;1788539;80;20998;-55
2020/12/02 04:30:59;;;;;;;14.05;6.95;;;;;;;-4.22;100.00;101602.91;1790817;80;21029;-55
2020/12/02 04:33:27;;;;;;;14.23;6.87;;;;;;;-4.22;100.00;101602.45;1789450;80;21120;-56
2020/12/02 04:35:56;;;;;;;16.45;7.03;;;;;;;-4.23;100.00;101592.34;1783914;80;21344;-56
2020/12/02 04:38:24;;;;;;;13.35;6.92;;;;;;;-4.23;100.00;101593.17;1785103;80;21045;-56
2020/12/02 04:40:52;;;;;;;15.68;6.55;;;;;;;-4.24;100.00;101599.16;1784490;80;21148;-56
2020/12/02 04:43:34;;;;;;;15.60;6.67;;;;;;;-4.23;100.00;101594.44;1786697;80;20911;-57
2020/12/02 04:46:03;;;;;;;14.83;6.58;;;;;;;-4.25;100.00;101601.29;1778685;80;21178;-57
2020/12/02 04:48:32;;;;;;;15.72;6.78;;;;;;;-4.28;100.00;101589.97;1789500;80;21382;-56
2020/12/02 04:51:25;;;;;;;12.75;6.42;;;;;;;-4.29;100.00;101587.02;1784723;80;20954;-56
2020/12/02 04:53:55;;;;;;;18.87;7.67;;;;;;;-4.30;100.00;101606.17;1783659;80;20962;-56
2020/12/02 04:56:25;;;;;;;15.40;7.72;;;;;;;-4.30;100.00;101596.81;1784843;80;21140;-57
2020/12/02 04:58:55;;;;;;;16.30;7.83;;;;;;;-4.28;100.00;101597.61;1790233;80;21083;-55
2020/12/02 05:01:34;;;;;;;20.62;9.53;;;;;;;-4.25;100.00;101594.92;1786984;80;21360;-55
2020/12/02 05:04:25;;;;;;;15.00;7.45;;;;;;;-4.23;100.00;101595.72;1788039;80;20990;-56
2020/12/02 05:07:08;;;;;;;13.25;7.55;;;;;;;-4.23;100.00;101599.53;1778842;80;20967;-55
2020/12/02 05:09:39;;;;;;;13.32;6.65;;;;;;;-4.22;100.00;101602.45;1743908;80;20962;-56
2020/12/02 05:12:13;;;;;;;17.12;7.22;;;;;;;-4.24;100.00;101602.15;1723607;80;21168;-56
2020/12/02 05:14:45;;;;;;;16.87;7.55;;;;;;;-4.25;100.00;101605.55;1779490;80;21366;-56
2020/12/02 05:17:28;;;;;;;15.98;7.75;;;;;;;-4.28;100.00;101605.24;1774904;80;21054;-56
2020/12/02 05:20:15;;;;;;;14.95;7.92;;;;;;;-4.28;100.00;101614.16;1778089;80;21168;-57
2020/12/02 05:22:47;;;;;;;17.20;9.13;;;;;;;-4.28;100.00;101615.84;1776828;80;21112;-56
2020/12/02 05:25:30;;;;;;;15.78;8.50;;;;;;;-4.30;100.00;101615.91;1774455;80;21025;-56
2020/12/02 05:28:27;;;;;;;22.40;8.55;;;;;;;-4.31;100.00;101621.89;1776555;80;21158;-56
2020/12/02 05:35:29;;;;;;;16.53;7.70;;;;;;;-4.30;100.00;101642.64;1803184;79;23332;-57
2020/12/02 05:37:57;;;;;;;16.32;7.20;;;;;;;-4.36;100.00;101635.65;1736215;81;21528;-56
2020/12/02 05:40:25;;;;;;;20.32;8.53;;;;;;;-4.35;100.00;101636.06;1755111;81;20991;-55
2020/12/02 05:42:57;;;;;;;18.17;8.78;;;;;;;-4.34;100.00;101637.72;1753236;80;20996;-55
2020/12/02 05:45:34;;;;;;;20.43;7.50;;;;;;;-4.33;100.00;101640.20;1756542;81;20999;-55
2020/12/02 05:48:04;;;;;;;14.73;7.42;;;;;;;-4.31;100.00;101640.98;1727397;81;20984;-55
2020/12/02 05:50:32;;;;;;;17.90;8.23;;;;;;;-4.28;100.00;101640.02;1756280;81;21537;-55
2020/12/02 05:53:34;;;;;;;15.43;8.63;;;;;;;-4.30;100.00;101646.45;1754390;80;21208;-56
2020/12/02 05:56:04;;;;;;;20.40;8.10;;;;;;;-4.32;100.00;101650.75;1693993;84;21637;-56
2020/12/02 05:58:32;;;;;;;16.90;8.05;;;;;;;-4.33;100.00;101651.65;1657359;84;21022;-56
2020/12/02 06:01:00;;;;;;;17.67;8.70;;;;;;;-4.35;100.00;101648.79;1697129;83;21591;-55
2020/12/02 06:03:32;;;;;;;19.65;8.23;;;;;;;-4.37;100.00;101647.55;1723626;83;20951;-55
2020/12/02 06:06:06;;;;;;;19.75;8.80;;;;;;;-4.35;100.00;101638.16;1726434;83;21213;-56
2020/12/02 06:08:41;;;;;;;20.30;8.45;;;;;;;-4.32;100.00;101648.20;1722895;81;21025;-55
2020/12/02 06:11:29;;;;;;;19.95;9.38;;;;;;;-4.29;100.00;101654.92;1726001;83;20988;-55
2020/12/02 06:14:17;;;;;;;41.73;18.92;;;;;;;-4.33;100.00;101647.83;1718525;81;20947;-55
2020/12/02 06:16:47;;;;;;;28.92;12.10;;;;;;;-4.37;100.00;101649.27;1704981;83;20962;-55
2020/12/02 06:19:32;;;;;;;57.65;25.95;;;;;;;-4.42;100.00;101637.98;1722175;83;21419;-55
2020/12/02 06:22:01;;;;;;;22.90;10.75;;;;;;;-4.41;100.00;101642.17;1694806;83;20989;-56
2020/12/02 06:24:38;;;;;;;16.50;8.05;;;;;;;-4.39;100.00;101648.06;1722874;83;21147;-55
2020/12/02 06:27:33;;;;;;;19.42;8.23;;;;;;;-4.41;100.00;101667.63;1726642;82;21042;-56
2020/12/02 06:30:12;;;;;;;17.75;8.33;;;;;;;-4.42;100.00;101658.34;1726756;82;21045;-56
2020/12/02 06:33:02;;;;;;;21.60;8.58;;;;;;;-4.42;100.00;101659.16;1696390;83;21068;-55
2020/12/02 06:35:30;;;;;;;18.82;8.20;;;;;;;-4.39;100.00;101674.78;1709282;82;21115;-55
2020/12/02 06:38:25;;;;;;;22.10;9.18;;;;;;;-4.42;100.00;101655.80;1741136;80;20937;-56
2020/12/02 06:41:05;;;;;;;18.70;7.30;;;;;;;-4.44;100.00;101666.45;1742928;82;21178;-56
2020/12/02 06:43:37;;;;;;;19.40;8.58;;;;;;;-4.41;100.00;101673.99;1738460;80;21141;-55
2020/12/02 06:46:05;;;;;;;21.65;8.30;;;;;;;-4.40;100.00;101668.02;1743478;82;21200;-56
2020/12/02 06:48:39;;;;;;;14.45;7.55;;;;;;;-4.41;100.00;101664.64;1743344;81;21186;-56
2020/12/02 06:51:10;;;;;;;16.48;8.15;;;;;;;-4.37;100.00;101660.27;1743362;82;21099;-56
2020/12/02 06:53:38;;;;;;;15.60;6.12;;;;;;;-4.36;100.00;101673.38;1743313;80;21096;-56
2020/12/02 06:56:06;;;;;;;20.37;8.08;;;;;;;-4.34;100.00;101669.08;1740551;82;21016;-56
2020/12/02 06:58:34;;;;;;;17.95;8.50;;;;;;;-4.35;100.00;101680.61;1740757;81;21762;-57
2020/12/02 07:05:43;;;;;;;16.53;8.27;;;;;;;-4.31;100.00;101661.80;1758035;79;22665;-57
2020/12/02 07:08:15;;;;;;;18.20;8.08;;;;;;;-4.35;100.00;101661.52;1722322;82;21050;-57
2020/12/02 07:11:19;;;;;;;19.40;8.40;;;;;;;-4.37;100.00;101669.63;1704939;83;21149;-57
2020/12/02 07:13:50;;;;;;;20.00;9.23;;;;;;;-4.39;100.00;101673.52;1714074;82;20949;-56
2020/12/02 07:16:22;;;;;;;;;;;;;;;-4.39;100.00;101688.78;1713350;83;21018;-57
2020/12/02 07:19:11;;;;;;;16.10;6.40;;;;;;;-4.40;100.00;101680.73;1710849;83;20108;-57
2020/12/02 07:21:56;;;;;;;20.23;7.55;;;;;;;-4.41;100.00;101685.45;1702305;81;20960;-57
2020/12/02 07:24:35;;;;;;;19.55;7.72;;;;;;;-4.44;100.00;101682.55;1693538;83;21381;-57
2020/12/02 07:27:05;;;;;;;17.55;8.43;;;;;;;-4.45;100.00;101682.17;1707653;83;21554;-57
2020/12/02 07:29:33;;;;;;;14.70;7.55;;;;;;;-4.45;100.00;101688.98;1706235;83;21017;-57
2020/12/02 07:32:04;;;;;;;21.17;8.33;;;;;;;-4.48;100.00;101689.08;1659068;85;21069;-57
2020/12/02 07:34:36;;;;;;;17.60;7.78;;;;;;;-4.49;100.00;101700.14;1668512;85;21118;-57
2020/12/02 07:37:13;;;;;;;18.07;7.50;;;;;;;-4.52;100.00;101704.89;1670583;85;22246;-57
2020/12/02 07:39:54;;;;;;;17.85;7.85;;;;;;;-4.55;100.00;101695.25;1708146;83;21077;-57
2020/12/02 07:42:33;;;;;;;18.25;7.78;;;;;;;-4.59;100.00;101703.87;1702486;82;21247;-56
2020/12/02 07:45:19;;;;;;;16.25;7.62;;;;;;;-4.62;100.00;101695.91;1694008;83;21666;-56
2020/12/02 07:48:10;;;;;;;16.30;7.40;;;;;;;-4.63;100.00;101706.12;1692950;83;20984;-57
2020/12/02 07:50:46;;;;;;;17.45;8.33;;;;;;;-4.67;100.00;101711.30;1698694;83;21214;-57
2020/12/02 07:53:27;;;;;;;18.90;7.75;;;;;;;-4.65;100.00;101710.83;1696131;83;21040;-55
2020/12/02 07:55:56;;;;;;;17.23;8.15;;;;;;;-4.63;100.00;101718.41;1706541;83;21059;-57
2020/12/02 07:58:34;;;;;;;14.83;8.13;;;;;;;-4.66;100.00;101721.89;1682998;83;21194;-57
2020/12/02 08:01:10;;;;;;;17.00;8.25;;;;;;;-4.68;100.00;101722.38;1696269;83;21193;-57
2020/12/02 08:03:39;;;;;;;19.05;8.95;;;;;;;-4.70;100.00;101720.33;1701143;83;21217;-57
2020/12/02 08:06:13;;;;;;;;;;;;;;;-4.69;100.00;101721.16;1695135;84;21151;-56
2020/12/02 08:08:40;;;;;;;20.27;8.45;;;;;;;-4.68;100.00;101721.55;1698227;83;20285;-58
2020/12/02 08:11:11;;;;;;;16.62;7.97;;;;;;;-4.68;100.00;101719.83;1693411;84;21550;-59
2020/12/02 08:13:51;;;;;;;;;;;;;;;-4.67;100.00;101717.67;1688615;84;20971;-57
2020/12/02 08:16:38;;;;;;;25.40;10.23;;;;;;;-4.65;100.00;101714.65;1695953;83;21211;-58
2020/12/02 08:19:10;;;;;;;18.25;7.85;;;;;;;-4.62;100.00;101721.36;1695624;84;21597;-56
2020/12/02 08:21:39;;;;;;;14.75;7.60;;;;;;;-4.63;100.00;101720.12;1680299;83;21145;-57
2020/12/02 08:24:36;;;;;;;15.43;8.08;;;;;;;-4.66;100.00;101724.85;1672118;84;21208;-57
2020/12/02 08:27:06;;;;;;;17.42;8.23;;;;;;;-4.65;100.00;101722.72;1684984;84;21193;-55
2020/12/02 08:29:35;;;;;;;22.05;8.83;;;;;;;-4.65;100.00;101727.81;1698286;84;21563;-55
2020/12/02 08:32:11;;;;;;;17.75;9.85;;;;;;;-4.63;100.00;101723.48;1689874;84;21163;-55
2020/12/02 08:34:39;;;;;;;15.35;7.90;;;;;;;-4.61;100.00;101714.55;1691747;83;21036;-55
2020/12/02 08:37:22;;;;;;;19.02;10.20;;;;;;;-4.57;100.00;101716.11;1687063;82;21040;-56
2020/12/02 08:39:55;;;;;;;;;;;;;;;-4.57;100.00;101713.56;1691070;83;21551;-57
2020/12/02 08:42:32;;;;;;;17.48;7.97;;;;;;;-4.60;100.00;101703.04;1691883;84;21215;-57
2020/12/02 08:45:14;;;;;;;15.93;8.38;;;;;;;-4.61;100.00;101712.84;1694097;84;21145;-56
2020/12/02 08:47:44;;;;;;;15.58;7.70;;;;;;;-4.59;100.00;101703.87;1693367;84;21181;-56
2020/12/02 08:50:28;;;;;;;20.08;8.75;;;;;;;-4.59;100.00;101691.97;1686769;84;20965;-56
2020/12/02 08:52:58;;;;;;;21.25;8.40;;;;;;;-4.58;100.00;101694.07;1684661;83;21129;-56
2020/12/02 08:55:27;;;;;;;21.15;10.08;;;;;;;-4.59;100.00;101691.97;1693437;84;21822;-57
2020/12/02 08:57:55;;;;;;;23.50;9.73;;;;;;;-4.60;100.00;101688.22;1693747;83;21228;-56
2020/12/02 09:00:24;;;;;;;21.33;8.98;;;;;;;-4.60;100.00;101685.67;1693107;82;21183;-56
2020/12/02 09:02:52;;;;;;;25.20;10.58;;;;;;;-4.62;100.00;101681.06;1699616;82;21021;-57
2020/12/02 09:05:20;;;;;;;19.67;8.93;;;;;;;-4.65;100.00;101673.94;1688521;84;21084;-56
2020/12/02 09:07:49;;;;;;;19.20;8.73;;;;;;;-4.65;100.00;101673.94;1688206;84;21212;-57
2020/12/02 09:10:17;;;;;;;21.42;8.45;;;;;;;-4.66;100.00;101677.37;1696222;83;21109;-56
2020/12/02 09:12:45;;;;;;;26.07;9.88;;;;;;;-4.69;100.00;101685.10;1691592;83;20973;-57
2020/12/02 09:15:13;;;;;;;18.25;9.33;;;;;;;-4.69;100.00;101681.28;1691712;84;21044;-57
2020/12/02 09:17:41;;;;;;;21.37;9.13;;;;;;;-4.67;100.00;101681.22;1684500;83;21200;-57
2020/12/02 09:20:09;;;;;;;17.42;9.33;;;;;;;-4.69;100.00;101676.20;1689622;82;21210;-56
2020/12/02 09:22:38;;;;;;;19.40;9.95;;;;;;;-4.71;100.00;101679.22;1691536;84;21056;-56
2020/12/02 09:25:07;;;;;;;19.55;9.00;;;;;;;-4.72;100.00;101676.29;1684152;84;20969;-56
2020/12/02 09:27:36;;;;;;;18.62;7.95;;;;;;;-4.70;100.00;101682.59;1691762;84;20997;-56
2020/12/02 09:30:05;;;;;;;18.40;8.93;;;;;;;-4.69;100.00;101677.91;1697812;83;21081;-56
2020/12/02 09:32:33;;;;;;;15.43;8.20;;;;;;;-4.67;100.00;101676.95;1683347;84;21373;-56
2020/12/02 09:35:01;;;;;;;18.32;8.00;;;;;;;-4.66;100.00;101676.10;1693780;84;21181;-56
2020/12/02 09:37:30;;;;;;;17.62;9.15;;;;;;;-4.66;100.00;101671.02;1691554;82;21110;-56
2020/12/02 09:39:58;;;;;;;18.32;9.08;;;;;;;-4.67;100.00;101666.78;1684484;84;21129;-56
2020/12/02 09:42:52;;;;;;;25.08;10.30;;;;;;;-4.66;100.00;101675.24;1686831;84;21107;-57
2020/12/02 09:45:35;;;;;;;18.77;8.73;;;;;;;-4.66;100.00;101671.02;1695115;84;21219;-55
2020/12/02 09:48:13;;;;;;;20.95;8.70;;;;;;;-4.63;100.00;101675.59;1693401;84;21063;-55
2020/12/02 09:50:42;;;;;;;18.85;9.45;;;;;;;-4.63;100.00;101679.41;1690799;83;21201;-55
2020/12/02 09:53:28;;;;;;;25.20;10.28;;;;;;;-4.65;100.00;101675.21;1694495;84;21183;-55
2020/12/02 09:55:56;;;;;;;48.73;20.35;;;;;;;-4.65;100.00;101668.02;1696727;83;21114;-57
2020/12/02 09:58:25;;;;;;;33.13;14.65;;;;;;;-4.65;100.00;101675.66;1694164;82;21386;-58
2020/12/02 10:01:00;;;;;;;23.42;11.75;;;;;;;-4.65;100.00;101676.48;1685817;84;21204;-57
2020/12/02 10:04:03;;;;;;;21.07;9.70;;;;;;;-4.62;100.00;101677.25;1696031;84;21181;-56
2020/12/02 10:06:42;;;;;;;18.52;9.50;;;;;;;-4.62;100.00;101664.52;1693105;84;21072;-57
2020/12/02 10:09:42;;;;;;;25.27;9.75;;;;;;;-4.64;100.00;101667.13;1698169;84;21114;-56
2020/12/02 10:12:38;;;;;;;33.45;17.10;;;;;;;-4.62;100.00;101673.02;1693240;82;21474;-56
2020/12/02 10:15:21;;;;;;;25.60;13.72;;;;;;;-4.62;100.00;101672.16;1636368;86;21205;-56
2020/12/02 10:18:00;;;;;;;29.30;15.20;;;;;;;-4.62;100.00;101675.97;1692259;84;21197;-56
2020/12/02 10:20:42;;;;;;;28.62;14.23;;;;;;;-4.60;100.00;101669.14;1689094;82;21158;-57
2020/12/02 10:23:33;;;;;;;;;;;;;;;-4.55;100.00;101668.53;1689399;84;21093;-56
2020/12/02 10:26:51;;;;;;;31.10;15.85;;;;;;;-4.49;100.00;101667.06;1693602;84;21385;-56
2020/12/02 10:29:29;;;;;;;29.82;15.50;;;;;;;-4.51;100.00;101670.09;1643879;83;21554;-57
2020/12/02 10:32:27;;;;;;;29.85;14.60;;;;;;;-4.54;100.00;101659.59;1689991;84;21117;-56
2020/12/02 10:34:55;;;;;;;25.62;13.30;;;;;;;-4.59;100.00;101669.07;1679192;83;21168;-56
2020/12/02 10:37:28;;;;;;;28.23;14.90;;;;;;;-4.63;100.00;101675.59;1685983;84;21255;-57
2020/12/02 10:39:57;;;;;;;22.73;12.58;;;;;;;-4.69;100.00;101671.55;1696579;84;21154;-56
2020/12/02 10:42:53;;;;;;;28.10;14.43;;;;;;;-4.73;100.00;101667.00;1666602;85;21136;-56
2020/12/02 10:45:23;;;;;;;22.17;12.07;;;;;;;-4.75;100.00;101673.02;1654535;86;21121;-55
2020/12/02 10:48:15;;;;;;;29.32;13.08;;;;;;;-4.81;100.00;101670.25;1652795;86;21196;-55
2020/12/02 10:50:43;;;;;;;19.15;10.35;;;;;;;-4.84;100.00;101661.44;1658583;86;21197;-56
2020/12/02 10:53:15;;;;;;;23.70;10.82;;;;;;;-4.87;100.00;101664.52;1658404;84;21224;-56
2020/12/02 10:55:45;;;;;;;20.62;10.68;;;;;;;-4.89;100.00;101665.81;1656187;86;21034;-56
2020/12/02 10:58:29;;;;;;;19.48;12.15;;;;;;;-4.86;100.00;101669.98;1659313;86;21028;-56
2020/12/02 11:01:00;;;;;;;20.88;10.93;;;;;;;-4.85;100.00;101662.73;1662884;84;21181;-56
2020/12/02 11:03:36;;;;;;;19.23;9.95;;;;;;;-4.89;100.00;101674.72;1656398;85;21149;-56
2020/12/02 11:06:37;;;;;;;21.82;10.53;;;;;;;-4.92;100.00;101658.31;1658456;86;22144;-56
2020/12/02 11:09:44;;;;;;;23.62;11.65;;;;;;;-4.92;100.00;101663.40;1662776;85;21595;-55
2020/12/02 11:12:30;;;;;;;22.30;12.40;;;;;;;-4.88;100.00;101661.59;1656502;86;21203;-56
2020/12/02 11:15:30;;;;;;;23.75;14.80;;;;;;;-4.86;100.00;101661.08;1624418;86;21264;-56
2020/12/02 11:18:41;;;;;;;23.57;11.67;;;;;;;-4.86;100.00;101650.47;1864509;75;22765;-56
2020/12/02 11:21:34;;;;;;;26.93;11.20;;;;;;;-4.88;100.00;101651.42;1831336;77;20962;-56
2020/12/02 11:24:10;;;;;;;22.00;12.47;;;;;;;-4.87;100.00;101662.80;1833546;77;21355;-57
2020/12/02 11:26:39;;;;;;;24.00;13.90;;;;;;;-4.87;100.00;101658.98;1845388;77;21037;-57
2020/12/02 11:29:13;;;;;;;24.65;12.90;;;;;;;-4.85;100.00;101658.48;1842749;77;21151;-56
2020/12/02 11:31:59;;;;;;;22.27;11.08;;;;;;;-4.84;100.00;101660.16;1833315;77;20986;-56
2020/12/02 11:34:56;;;;;;;20.75;10.35;;;;;;;-4.83;100.00;101660.55;1835143;77;20958;-56
2020/12/02 11:37:32;;;;;;;24.60;12.33;;;;;;;-4.85;100.00;101662.29;1839733;77;21276;-56
2020/12/02 11:40:11;;;;;;;23.00;11.00;;;;;;;-4.86;100.00;101656.00;1781328;79;21073;-56
2020/12/02 11:43:03;;;;;;;23.52;12.47;;;;;;;-4.86;100.00;101662.36;1813805;78;20974;-56
2020/12/02 11:45:41;;;;;;;22.48;12.37;;;;;;;-4.87;100.00;101664.52;1779172;78;21159;-56
2020/12/02 11:48:29;;;;;;;23.67;14.10;;;;;;;-4.86;100.00;101661.08;1806137;78;21111;-56
2020/12/02 11:51:30;;;;;;;25.02;11.97;;;;;;;-4.88;100.00;101661.59;1751331;80;21200;-56
2020/12/02 11:54:04;;;;;;;28.32;14.05;;;;;;;-4.90;100.00;101664.99;1776093;80;21155;-57
2020/12/02 11:56:52;;;;;;;25.37;13.87;;;;;;;-4.86;100.00;101659.81;1881124;74;22707;-57
2020/12/02 11:59:26;;;;;;;33.53;15.10;;;;;;;-4.92;100.00;101668.04;1827290;77;21026;-56
2020/12/02 12:02:06;;;;;;;25.43;13.18;;;;;;;-4.90;100.00;101668.80;1816471;77;21195;-57
2020/12/02 12:04:42;;;;;;;25.80;14.68;;;;;;;-4.87;100.00;101662.80;1822131;77;21021;-57
2020/12/02 12:07:39;;;;;;;23.55;12.45;;;;;;;-4.83;100.00;101664.36;1785215;78;21006;-56